Main page
METAR-TAF:

METAR-TAF

Airports :

Glasgow Airport

Glasgow, Scotland

latitude: 55-52N, longitude: 004-26W, elevation: 8 m

Current weather observation

The report was made 18 minutes ago, at 00:20 UTC
Wind 10 kt from the East/Northeast
Temperature 9°C
Humidity 93%
Pressure 1028 hPa
Visibility: 8000 m
Overcast at a height of 600 ft

METAR: EGPF 240020Z AUTO 06010KT 8000 OVC006 09/08 Q1028

Time: 01:38 (00:38 UTC)

Forecast

The report was made 1 hour and 44 minutes ago, at 22:54 UTC
Forecast valid from 24 at 00 UTC to 24 at 24 UTC
Wind 8 kt from the East/Northeast
Visibility 10 km or more
Few clouds at a height of 4000 ft
Probability 40%
from 24 at 00 UTC to 24 at 08 UTC
Visibility: 7000 m
Broken clouds at a height of 700 ft

TAF: EGPF 232254Z 2400/2424 07008KT 9999 FEW040 PROB40 2400/2408 7000 BKN007

Weather observations and forecasts of more than 4000 airports (METAR and TAF reports).

The available stations are represented by yellow and red dots on the map.

Hover mouse over dot to see the name of the station.

Then click to see weather observations and forecasts.

To change the map : click on the green buttons with a black cross to zoom in, on the green button with a dash to zoom out, or on the green arrows for adjacent maps.


METAR-TAF: